FZAAFCBB

Guest
Details From FZAA - NDJILI INTL
To FCBB - MAYA MAYA
Flight Number -
Tags generated
Created
Modified
Stats Distance 14 nm / 27 km
Max Altitude 100 ft / 30 m
Waypoints 3
Social Downloads 0
Likes 0
Share VATSIM

Download

Looking for another format? Having issues loading an existing format? Contact us
Advertisement - Login to hide

Notes

Basic altitude profile: - Ascent Rate: 2500ft/min - Ascent Speed: 250kts - Cruise Altitude: 80ft - Cruise Speed: 420kts - Descent Rate: 1500ft/min - Descent Speed: 250kts Options: - Use NATs: yes - Use PACOTS: yes - Use low airways: yes - Use high airways: yes

Route

FZAA BZ FCBB

ID Type Via Altitude Latitude Longitude Leg Dist Tot Dist Heading (true) Name
O FZAA APT - 0 ft / 0 m -4.38575˚ 15.44457˚ - 0 nm - NDJILI INTL
BZ VOR - 100 ft / 30 m -4.24561˚ 15.26381˚ 13 nm 13 nm 308° / 308° BRAZZAVILLE MAYA MAYA VOR-DME
O FCBB APT - 0 ft / 0 m -4.25170˚ 15.25303˚ 0 nm 14 nm 240° / 240° MAYA MAYA

Altitude Profile

Advertisement - Login to hide

FZAA

Details ICAO FZAA (FIH)
Name NDJILI INTL
Region Democratic Republic of the Congo
Timezone Africa/Kinshasa (UTC+1.0)
Stats Elevation 1,027 ft / 313 m (AMSL)
Location -4.385750° 15.444570°
Runways 1
Magnetic Variation 1.335° W

METAR

FZAA 110100Z 24004KT 9999 SCT016 24/22 Q1012 NOSIG

Decode

TAF

Not found

Departure Runways

ID Width Length Bearing (true) Bearing (mag) Surface Threshold Offset Overrun Length
06 197 ft / 60 m 15,430 ft / 4,703 m 57.32° 58.65° Concrete 0 ft / 0 m 0 ft / 0 m
24 197 ft / 60 m 15,430 ft / 4,703 m 237.32° 238.65° Concrete 0 ft / 0 m 220 ft / 67 m

FCBB

Details ICAO FCBB (BZV)
Name MAYA MAYA
Region Republic of the Congo
Timezone Africa/Brazzaville (UTC+1.0)
Stats Elevation 1,048 ft / 319 m (AMSL)
Location -4.251698° 15.253029°
Runways 1
Magnetic Variation 1.354° W

METAR

FCBB 110200Z 26004KT 8000 NSC 24/22 Q1012 NOSIG

Decode

TAF

TAF FCBB 102300Z 1100/1206 24004KT 9000 FEW018 BECMG 1112/1114 FEW020 FEW030CB BECMG 1120/1121 SCT016

Decode

Destination Runways

ID Width Length Bearing (true) Bearing (mag) Surface Threshold Offset Overrun Length
05 148 ft / 45 m 10,849 ft / 3,307 m 49.91° 51.26° Asphalt 0 ft / 0 m 275 ft / 84 m
23 148 ft / 45 m 10,849 ft / 3,307 m 229.91° 231.26° Asphalt 0 ft / 0 m 275 ft / 84 m

Popular Alternatives